sensor_id;sensor_type;location;lat;lon;timestamp;P1;durP1;ratioP1;P2;durP2;ratioP2
71888;SDS011;59762;49.998;14.858;2023-04-07T00:00:20;11.32;;;4.28;;
71888;SDS011;59762;49.998;14.858;2023-04-07T00:03:05;4.85;;;3.78;;
71888;SDS011;59762;49.998;14.858;2023-04-07T00:05:32;5.47;;;3.53;;
71888;SDS011;59762;49.998;14.858;2023-04-07T00:07:57;8.60;;;5.90;;
71888;SDS011;59762;49.998;14.858;2023-04-07T00:10:24;9.65;;;4.68;;
71888;SDS011;59762;49.998;14.858;2023-04-07T00:12:50;17.33;;;5.32;;
71888;SDS011;59762;49.998;14.858;2023-04-07T00:15:15;31.10;;;11.35;;
71888;SDS011;59762;49.998;14.858;2023-04-07T00:17:41;39.20;;;12.68;;
71888;SDS011;59762;49.998;14.858;2023-04-07T00:20:07;49.70;;;16.92;;
71888;SDS011;59762;49.998;14.858;2023-04-07T00:22:33;50.72;;;15.52;;
71888;SDS011;59762;49.998;14.858;2023-04-07T00:24:58;32.70;;;11.55;;
71888;SDS011;59762;49.998;14.858;2023-04-07T00:27:24;35.35;;;11.25;;
71888;SDS011;59762;49.998;14.858;2023-04-07T00:29:50;41.03;;;11.82;;
71888;SDS011;59762;49.998;14.858;2023-04-07T00:32:19;23.67;;;9.93;;
71888;SDS011;59762;49.998;14.858;2023-04-07T00:34:44;31.10;;;11.55;;
71888;SDS011;59762;49.998;14.858;2023-04-07T00:37:10;20.58;;;10.70;;
71888;SDS011;59762;49.998;14.858;2023-04-07T00:39:36;26.55;;;11.95;;
71888;SDS011;59762;49.998;14.858;2023-04-07T00:42:04;38.50;;;15.65;;
71888;SDS011;59762;49.998;14.858;2023-04-07T00:44:32;48.80;;;13.90;;
71888;SDS011;59762;49.998;14.858;2023-04-07T00:46:58;34.50;;;15.02;;
71888;SDS011;59762;49.998;14.858;2023-04-07T00:49:25;44.20;;;17.88;;
71888;SDS011;59762;49.998;14.858;2023-04-07T00:51:54;27.88;;;11.82;;
71888;SDS011;59762;49.998;14.858;2023-04-07T00:54:24;22.75;;;9.77;;
71888;SDS011;59762;49.998;14.858;2023-04-07T00:56:51;21.88;;;8.63;;
71888;SDS011;59762;49.998;14.858;2023-04-07T00:59:17;17.33;;;8.02;;
71888;SDS011;59762;49.998;14.858;2023-04-07T01:01:46;12.73;;;7.72;;
71888;SDS011;59762;49.998;14.858;2023-04-07T01:06:52;8.25;;;5.25;;
71888;SDS011;59762;49.998;14.858;2023-04-07T01:09:24;9.55;;;4.95;;
71888;SDS011;59762;49.998;14.858;2023-04-07T01:14:46;8.98;;;4.95;;
71888;SDS011;59762;49.998;14.858;2023-04-07T01:17:16;16.95;;;6.03;;
71888;SDS011;59762;49.998;14.858;2023-04-07T01:22:22;11.43;;;5.35;;
71888;SDS011;59762;49.998;14.858;2023-04-07T01:33:24;11.15;;;3.22;;
71888;SDS011;59762;49.998;14.858;2023-04-07T01:35:56;5.85;;;3.20;;
71888;SDS011;59762;49.998;14.858;2023-04-07T01:38:25;16.30;;;4.32;;
71888;SDS011;59762;49.998;14.858;2023-04-07T01:40:52;7.18;;;3.83;;
71888;SDS011;59762;49.998;14.858;2023-04-07T01:43:19;5.88;;;4.32;;
71888;SDS011;59762;49.998;14.858;2023-04-07T01:45:46;7.05;;;3.78;;
71888;SDS011;59762;49.998;14.858;2023-04-07T01:48:13;9.43;;;4.35;;
71888;SDS011;59762;49.998;14.858;2023-04-07T01:50:40;7.65;;;4.35;;
71888;SDS011;59762;49.998;14.858;2023-04-07T01:53:08;5.65;;;4.95;;
71888;SDS011;59762;49.998;14.858;2023-04-07T01:55:35;12.07;;;4.63;;
71888;SDS011;59762;49.998;14.858;2023-04-07T01:58:04;11.23;;;6.40;;
71888;SDS011;59762;49.998;14.858;2023-04-07T02:00:31;9.70;;;4.25;;
71888;SDS011;59762;49.998;14.858;2023-04-07T02:02:59;12.05;;;5.70;;
71888;SDS011;59762;49.998;14.858;2023-04-07T02:05:35;7.82;;;4.15;;
71888;SDS011;59762;49.998;14.858;2023-04-07T02:08:05;9.55;;;4.47;;
71888;SDS011;59762;49.998;14.858;2023-04-07T02:10:34;7.63;;;3.00;;
71888;SDS011;59762;49.998;14.858;2023-04-07T02:13:02;6.25;;;4.03;;
71888;SDS011;59762;49.998;14.858;2023-04-07T02:15:30;10.55;;;4.32;;
71888;SDS011;59762;49.998;14.858;2023-04-07T02:17:57;7.75;;;4.32;;
71888;SDS011;59762;49.998;14.858;2023-04-07T02:20:25;8.77;;;4.35;;
71888;SDS011;59762;49.998;14.858;2023-04-07T02:22:52;5.55;;;4.20;;
71888;SDS011;59762;49.998;14.858;2023-04-07T02:25:24;6.60;;;4.00;;
71888;SDS011;59762;49.998;14.858;2023-04-07T02:27:51;12.68;;;4.53;;
71888;SDS011;59762;49.998;14.858;2023-04-07T02:30:17;10.70;;;5.47;;
71888;SDS011;59762;49.998;14.858;2023-04-07T02:32:43;9.93;;;5.05;;
71888;SDS011;59762;49.998;14.858;2023-04-07T02:35:09;6.95;;;4.88;;
71888;SDS011;59762;49.998;14.858;2023-04-07T02:37:36;13.32;;;5.30;;
71888;SDS011;59762;49.998;14.858;2023-04-07T02:40:02;6.93;;;4.57;;
71888;SDS011;59762;49.998;14.858;2023-04-07T02:42:29;7.35;;;4.20;;
71888;SDS011;59762;49.998;14.858;2023-04-07T02:44:55;9.13;;;3.97;;
71888;SDS011;59762;49.998;14.858;2023-04-07T02:47:20;10.20;;;5.57;;
71888;SDS011;59762;49.998;14.858;2023-04-07T02:49:46;6.78;;;4.38;;
71888;SDS011;59762;49.998;14.858;2023-04-07T02:52:12;7.25;;;4.35;;
71888;SDS011;59762;49.998;14.858;2023-04-07T02:54:37;4.50;;;2.97;;
71888;SDS011;59762;49.998;14.858;2023-04-07T02:57:03;8.32;;;5.53;;
71888;SDS011;59762;49.998;14.858;2023-04-07T02:59:29;7.57;;;4.38;;
71888;SDS011;59762;49.998;14.858;2023-04-07T03:01:54;13.45;;;5.50;;
71888;SDS011;59762;49.998;14.858;2023-04-07T03:04:20;13.35;;;4.97;;
71888;SDS011;59762;49.998;14.858;2023-04-07T03:06:46;7.35;;;3.75;;
71888;SDS011;59762;49.998;14.858;2023-04-07T03:09:12;11.45;;;5.60;;
71888;SDS011;59762;49.998;14.858;2023-04-07T03:11:38;7.55;;;4.80;;
71888;SDS011;59762;49.998;14.858;2023-04-07T03:14:04;9.60;;;4.30;;
71888;SDS011;59762;49.998;14.858;2023-04-07T03:16:29;8.45;;;4.43;;
71888;SDS011;59762;49.998;14.858;2023-04-07T03:18:55;5.90;;;4.10;;
71888;SDS011;59762;49.998;14.858;2023-04-07T03:21:21;11.23;;;4.30;;
71888;SDS011;59762;49.998;14.858;2023-04-07T03:23:47;9.50;;;4.18;;
71888;SDS011;59762;49.998;14.858;2023-04-07T03:26:12;10.05;;;4.22;;
71888;SDS011;59762;49.998;14.858;2023-04-07T03:28:38;6.05;;;4.22;;
71888;SDS011;59762;49.998;14.858;2023-04-07T03:31:03;8.00;;;4.15;;
71888;SDS011;59762;49.998;14.858;2023-04-07T03:33:29;9.50;;;4.65;;
71888;SDS011;59762;49.998;14.858;2023-04-07T03:35:55;8.07;;;4.32;;
71888;SDS011;59762;49.998;14.858;2023-04-07T03:38:21;6.90;;;3.67;;
71888;SDS011;59762;49.998;14.858;2023-04-07T03:40:46;7.53;;;3.67;;
71888;SDS011;59762;49.998;14.858;2023-04-07T03:43:12;15.20;;;4.85;;
71888;SDS011;59762;49.998;14.858;2023-04-07T03:45:40;13.98;;;4.88;;
71888;SDS011;59762;49.998;14.858;2023-04-07T03:48:08;14.45;;;4.90;;
71888;SDS011;59762;49.998;14.858;2023-04-07T03:50:37;10.05;;;4.90;;
71888;SDS011;59762;49.998;14.858;2023-04-07T03:53:04;6.78;;;4.78;;
71888;SDS011;59762;49.998;14.858;2023-04-07T03:55:29;7.88;;;3.83;;
71888;SDS011;59762;49.998;14.858;2023-04-07T03:57:56;7.38;;;3.70;;
71888;SDS011;59762;49.998;14.858;2023-04-07T04:00:22;8.50;;;4.35;;
71888;SDS011;59762;49.998;14.858;2023-04-07T04:02:48;8.90;;;3.55;;
71888;SDS011;59762;49.998;14.858;2023-04-07T04:05:14;9.70;;;4.13;;
71888;SDS011;59762;49.998;14.858;2023-04-07T04:07:39;7.38;;;2.97;;
71888;SDS011;59762;49.998;14.858;2023-04-07T04:10:05;8.65;;;4.18;;
71888;SDS011;59762;49.998;14.858;2023-04-07T04:12:31;8.23;;;4.25;;
71888;SDS011;59762;49.998;14.858;2023-04-07T04:14:57;5.18;;;2.80;;
71888;SDS011;59762;49.998;14.858;2023-04-07T04:17:23;6.63;;;3.40;;
71888;SDS011;59762;49.998;14.858;2023-04-07T04:19:50;17.35;;;4.88;;
71888;SDS011;59762;49.998;14.858;2023-04-07T04:22:16;5.43;;;3.33;;
71888;SDS011;59762;49.998;14.858;2023-04-07T04:24:42;8.60;;;4.18;;
71888;SDS011;59762;49.998;14.858;2023-04-07T04:27:07;9.60;;;4.10;;
71888;SDS011;59762;49.998;14.858;2023-04-07T04:29:33;5.97;;;3.88;;
71888;SDS011;59762;49.998;14.858;2023-04-07T04:31:59;5.25;;;3.88;;
71888;SDS011;59762;49.998;14.858;2023-04-07T04:34:24;4.82;;;3.08;;
71888;SDS011;59762;49.998;14.858;2023-04-07T04:36:50;5.95;;;3.70;;
71888;SDS011;59762;49.998;14.858;2023-04-07T04:39:16;7.32;;;4.07;;
71888;SDS011;59762;49.998;14.858;2023-04-07T04:41:42;7.07;;;4.68;;
71888;SDS011;59762;49.998;14.858;2023-04-07T04:44:08;8.57;;;4.22;;
71888;SDS011;59762;49.998;14.858;2023-04-07T04:46:34;13.32;;;7.07;;
71888;SDS011;59762;49.998;14.858;2023-04-07T04:48:59;26.17;;;15.05;;
71888;SDS011;59762;49.998;14.858;2023-04-07T04:51:25;30.15;;;14.13;;
71888;SDS011;59762;49.998;14.858;2023-04-07T04:53:51;8.50;;;5.32;;
71888;SDS011;59762;49.998;14.858;2023-04-07T04:56:17;10.90;;;4.28;;
71888;SDS011;59762;49.998;14.858;2023-04-07T04:58:42;5.25;;;3.60;;
71888;SDS011;59762;49.998;14.858;2023-04-07T05:01:11;6.88;;;3.85;;
71888;SDS011;59762;49.998;14.858;2023-04-07T05:03:37;4.85;;;3.15;;
71888;SDS011;59762;49.998;14.858;2023-04-07T05:06:03;9.27;;;4.28;;
71888;SDS011;59762;49.998;14.858;2023-04-07T05:08:28;6.32;;;3.25;;
71888;SDS011;59762;49.998;14.858;2023-04-07T05:10:54;7.03;;;4.50;;
71888;SDS011;59762;49.998;14.858;2023-04-07T05:13:20;5.47;;;3.45;;
71888;SDS011;59762;49.998;14.858;2023-04-07T05:15:46;6.93;;;4.30;;
71888;SDS011;59762;49.998;14.858;2023-04-07T05:18:11;10.35;;;4.55;;
71888;SDS011;59762;49.998;14.858;2023-04-07T05:20:37;7.85;;;3.55;;
71888;SDS011;59762;49.998;14.858;2023-04-07T05:23:03;7.65;;;3.65;;
71888;SDS011;59762;49.998;14.858;2023-04-07T05:25:29;7.68;;;3.55;;
71888;SDS011;59762;49.998;14.858;2023-04-07T05:27:56;4.55;;;2.92;;
71888;SDS011;59762;49.998;14.858;2023-04-07T05:30:23;5.82;;;2.92;;
71888;SDS011;59762;49.998;14.858;2023-04-07T05:32:48;10.65;;;4.13;;
71888;SDS011;59762;49.998;14.858;2023-04-07T05:35:14;6.45;;;3.80;;
71888;SDS011;59762;49.998;14.858;2023-04-07T05:37:40;7.57;;;4.65;;
71888;SDS011;59762;49.998;14.858;2023-04-07T05:40:06;9.05;;;4.15;;
71888;SDS011;59762;49.998;14.858;2023-04-07T05:42:32;8.70;;;3.85;;
71888;SDS011;59762;49.998;14.858;2023-04-07T05:44:57;5.97;;;5.18;;
71888;SDS011;59762;49.998;14.858;2023-04-07T05:47:23;4.28;;;2.80;;
71888;SDS011;59762;49.998;14.858;2023-04-07T05:49:49;8.73;;;5.13;;
71888;SDS011;59762;49.998;14.858;2023-04-07T05:52:14;15.20;;;5.03;;
71888;SDS011;59762;49.998;14.858;2023-04-07T05:54:40;7.03;;;3.42;;
71888;SDS011;59762;49.998;14.858;2023-04-07T05:57:06;8.45;;;5.07;;
71888;SDS011;59762;49.998;14.858;2023-04-07T05:59:32;7.03;;;4.25;;
71888;SDS011;59762;49.998;14.858;2023-04-07T06:02:01;15.18;;;6.57;;
71888;SDS011;59762;49.998;14.858;2023-04-07T06:04:28;19.92;;;5.68;;
71888;SDS011;59762;49.998;14.858;2023-04-07T06:06:53;7.00;;;2.97;;
71888;SDS011;59762;49.998;14.858;2023-04-07T06:09:20;6.22;;;4.00;;
71888;SDS011;59762;49.998;14.858;2023-04-07T06:11:46;8.68;;;3.78;;
71888;SDS011;59762;49.998;14.858;2023-04-07T06:14:12;6.43;;;3.53;;
71888;SDS011;59762;49.998;14.858;2023-04-07T06:16:38;10.70;;;4.45;;
71888;SDS011;59762;49.998;14.858;2023-04-07T06:19:03;8.93;;;3.00;;
71888;SDS011;59762;49.998;14.858;2023-04-07T06:21:29;9.05;;;3.53;;
71888;SDS011;59762;49.998;14.858;2023-04-07T06:23:55;4.95;;;2.88;;
71888;SDS011;59762;49.998;14.858;2023-04-07T06:26:21;6.28;;;3.00;;
71888;SDS011;59762;49.998;14.858;2023-04-07T06:28:47;7.43;;;2.35;;
71888;SDS011;59762;49.998;14.858;2023-04-07T06:31:13;6.63;;;3.50;;
71888;SDS011;59762;49.998;14.858;2023-04-07T06:33:39;8.65;;;2.67;;
71888;SDS011;59762;49.998;14.858;2023-04-07T06:36:05;5.80;;;3.33;;
71888;SDS011;59762;49.998;14.858;2023-04-07T06:38:31;2.88;;;2.42;;
71888;SDS011;59762;49.998;14.858;2023-04-07T06:40:56;10.13;;;3.92;;
71888;SDS011;59762;49.998;14.858;2023-04-07T06:43:22;5.53;;;2.78;;
71888;SDS011;59762;49.998;14.858;2023-04-07T06:45:48;6.32;;;3.05;;
71888;SDS011;59762;49.998;14.858;2023-04-07T06:48:13;8.85;;;3.30;;
71888;SDS011;59762;49.998;14.858;2023-04-07T06:50:40;4.65;;;3.33;;
71888;SDS011;59762;49.998;14.858;2023-04-07T06:53:06;7.60;;;2.85;;
71888;SDS011;59762;49.998;14.858;2023-04-07T06:55:31;4.18;;;3.15;;
71888;SDS011;59762;49.998;14.858;2023-04-07T06:57:57;5.00;;;2.50;;
71888;SDS011;59762;49.998;14.858;2023-04-07T07:00:23;7.50;;;3.58;;
71888;SDS011;59762;49.998;14.858;2023-04-07T07:02:50;11.10;;;3.53;;
71888;SDS011;59762;49.998;14.858;2023-04-07T07:05:16;5.82;;;2.92;;
71888;SDS011;59762;49.998;14.858;2023-04-07T07:07:41;7.65;;;3.25;;
71888;SDS011;59762;49.998;14.858;2023-04-07T07:10:07;5.20;;;2.10;;
71888;SDS011;59762;49.998;14.858;2023-04-07T07:12:35;3.63;;;2.67;;
71888;SDS011;59762;49.998;14.858;2023-04-07T07:15:01;4.88;;;2.53;;
71888;SDS011;59762;49.998;14.858;2023-04-07T07:17:26;6.70;;;3.35;;
71888;SDS011;59762;49.998;14.858;2023-04-07T07:19:52;4.75;;;3.20;;
71888;SDS011;59762;49.998;14.858;2023-04-07T07:22:18;4.53;;;2.22;;
71888;SDS011;59762;49.998;14.858;2023-04-07T07:24:43;6.38;;;2.53;;
71888;SDS011;59762;49.998;14.858;2023-04-07T07:27:09;4.07;;;2.38;;
71888;SDS011;59762;49.998;14.858;2023-04-07T07:29:35;3.75;;;2.30;;
71888;SDS011;59762;49.998;14.858;2023-04-07T07:32:00;5.90;;;2.67;;
71888;SDS011;59762;49.998;14.858;2023-04-07T07:34:26;3.45;;;2.78;;
71888;SDS011;59762;49.998;14.858;2023-04-07T07:36:52;7.82;;;3.10;;
71888;SDS011;59762;49.998;14.858;2023-04-07T07:39:17;5.35;;;2.95;;
71888;SDS011;59762;49.998;14.858;2023-04-07T07:41:43;7.78;;;4.05;;
71888;SDS011;59762;49.998;14.858;2023-04-07T07:44:09;4.35;;;2.63;;
71888;SDS011;59762;49.998;14.858;2023-04-07T07:46:35;4.97;;;3.25;;
71888;SDS011;59762;49.998;14.858;2023-04-07T07:49:00;4.65;;;2.80;;
71888;SDS011;59762;49.998;14.858;2023-04-07T07:51:26;10.77;;;3.25;;
71888;SDS011;59762;49.998;14.858;2023-04-07T07:53:52;5.45;;;3.70;;
71888;SDS011;59762;49.998;14.858;2023-04-07T07:56:18;3.70;;;1.85;;
71888;SDS011;59762;49.998;14.858;2023-04-07T07:58:43;6.35;;;3.35;;
71888;SDS011;59762;49.998;14.858;2023-04-07T08:01:09;6.18;;;2.85;;
71888;SDS011;59762;49.998;14.858;2023-04-07T08:03:35;6.13;;;3.40;;
71888;SDS011;59762;49.998;14.858;2023-04-07T08:06:01;3.78;;;2.88;;
71888;SDS011;59762;49.998;14.858;2023-04-07T08:08:27;8.90;;;3.40;;
71888;SDS011;59762;49.998;14.858;2023-04-07T08:10:53;5.72;;;3.47;;
71888;SDS011;59762;49.998;14.858;2023-04-07T08:13:18;7.55;;;3.58;;
71888;SDS011;59762;49.998;14.858;2023-04-07T08:15:44;6.03;;;3.17;;
71888;SDS011;59762;49.998;14.858;2023-04-07T08:18:10;5.13;;;2.33;;
71888;SDS011;59762;49.998;14.858;2023-04-07T08:20:35;5.07;;;3.35;;
71888;SDS011;59762;49.998;14.858;2023-04-07T08:23:02;7.80;;;4.10;;
71888;SDS011;59762;49.998;14.858;2023-04-07T08:25:28;6.97;;;3.67;;
71888;SDS011;59762;49.998;14.858;2023-04-07T08:27:54;6.75;;;3.17;;
71888;SDS011;59762;49.998;14.858;2023-04-07T08:30:21;9.75;;;4.07;;
71888;SDS011;59762;49.998;14.858;2023-04-07T08:32:47;4.68;;;2.90;;
71888;SDS011;59762;49.998;14.858;2023-04-07T08:35:13;6.97;;;4.30;;
71888;SDS011;59762;49.998;14.858;2023-04-07T08:37:39;8.38;;;4.13;;
71888;SDS011;59762;49.998;14.858;2023-04-07T08:40:09;12.88;;;4.10;;
71888;SDS011;59762;49.998;14.858;2023-04-07T08:42:39;8.10;;;3.83;;
71888;SDS011;59762;49.998;14.858;2023-04-07T08:45:09;9.50;;;4.35;;
71888;SDS011;59762;49.998;14.858;2023-04-07T08:47:36;8.93;;;4.68;;
71888;SDS011;59762;49.998;14.858;2023-04-07T08:50:10;7.38;;;3.40;;
71888;SDS011;59762;49.998;14.858;2023-04-07T08:55:12;7.10;;;3.25;;
71888;SDS011;59762;49.998;14.858;2023-04-07T08:57:41;10.32;;;3.58;;
71888;SDS011;59762;49.998;14.858;2023-04-07T09:00:09;5.72;;;3.50;;
71888;SDS011;59762;49.998;14.858;2023-04-07T09:02:38;15.35;;;3.30;;
71888;SDS011;59762;49.998;14.858;2023-04-07T09:05:10;8.75;;;3.55;;
71888;SDS011;59762;49.998;14.858;2023-04-07T09:07:42;7.30;;;2.95;;
71888;SDS011;59762;49.998;14.858;2023-04-07T09:10:10;6.28;;;3.25;;
71888;SDS011;59762;49.998;14.858;2023-04-07T09:12:38;6.50;;;3.63;;
71888;SDS011;59762;49.998;14.858;2023-04-07T09:15:06;9.20;;;3.72;;
71888;SDS011;59762;49.998;14.858;2023-04-07T09:17:32;5.35;;;2.97;;
71888;SDS011;59762;49.998;14.858;2023-04-07T09:19:59;3.65;;;2.03;;
71888;SDS011;59762;49.998;14.858;2023-04-07T09:22:35;5.55;;;3.05;;
71888;SDS011;59762;49.998;14.858;2023-04-07T09:25:22;6.25;;;2.50;;
71888;SDS011;59762;49.998;14.858;2023-04-07T09:27:57;7.45;;;3.38;;
71888;SDS011;59762;49.998;14.858;2023-04-07T09:30:27;7.15;;;2.97;;
71888;SDS011;59762;49.998;14.858;2023-04-07T09:32:53;5.38;;;3.13;;
71888;SDS011;59762;49.998;14.858;2023-04-07T09:35:19;6.40;;;3.15;;
71888;SDS011;59762;49.998;14.858;2023-04-07T09:43:13;6.32;;;2.78;;
71888;SDS011;59762;49.998;14.858;2023-04-07T09:45:40;7.85;;;3.20;;
71888;SDS011;59762;49.998;14.858;2023-04-07T09:48:19;4.80;;;2.80;;
71888;SDS011;59762;49.998;14.858;2023-04-07T09:50:46;7.20;;;3.28;;
71888;SDS011;59762;49.998;14.858;2023-04-07T09:53:16;6.53;;;3.30;;
71888;SDS011;59762;49.998;14.858;2023-04-07T09:55:43;6.05;;;2.70;;
71888;SDS011;59762;49.998;14.858;2023-04-07T09:58:12;6.15;;;3.65;;
71888;SDS011;59762;49.998;14.858;2023-04-07T10:00:39;5.07;;;3.30;;
71888;SDS011;59762;49.998;14.858;2023-04-07T10:03:06;4.55;;;3.70;;
71888;SDS011;59762;49.998;14.858;2023-04-07T10:05:32;6.82;;;3.80;;
71888;SDS011;59762;49.998;14.858;2023-04-07T10:07:59;6.18;;;2.58;;
71888;SDS011;59762;49.998;14.858;2023-04-07T10:10:26;7.03;;;3.17;;
71888;SDS011;59762;49.998;14.858;2023-04-07T10:12:54;7.97;;;3.53;;
71888;SDS011;59762;49.998;14.858;2023-04-07T10:15:21;6.78;;;3.97;;
71888;SDS011;59762;49.998;14.858;2023-04-07T10:17:47;6.65;;;3.65;;
71888;SDS011;59762;49.998;14.858;2023-04-07T10:20:18;6.88;;;3.03;;
71888;SDS011;59762;49.998;14.858;2023-04-07T10:22:50;9.15;;;3.97;;
71888;SDS011;59762;49.998;14.858;2023-04-07T10:25:18;5.70;;;4.07;;
71888;SDS011;59762;49.998;14.858;2023-04-07T10:27:47;10.60;;;4.30;;
71888;SDS011;59762;49.998;14.858;2023-04-07T10:30:21;8.57;;;3.58;;
71888;SDS011;59762;49.998;14.858;2023-04-07T10:32:50;6.53;;;3.13;;
71888;SDS011;59762;49.998;14.858;2023-04-07T10:35:17;7.97;;;3.45;;
71888;SDS011;59762;49.998;14.858;2023-04-07T10:40:38;6.95;;;3.15;;
71888;SDS011;59762;49.998;14.858;2023-04-07T10:43:05;6.90;;;3.47;;
71888;SDS011;59762;49.998;14.858;2023-04-07T10:48:18;5.10;;;3.22;;
71888;SDS011;59762;49.998;14.858;2023-04-07T10:50:45;10.85;;;4.20;;
71888;SDS011;59762;49.998;14.858;2023-04-07T10:53:32;8.50;;;4.90;;
71888;SDS011;59762;49.998;14.858;2023-04-07T10:55:59;6.15;;;3.10;;
71888;SDS011;59762;49.998;14.858;2023-04-07T11:03:31;7.03;;;3.50;;
71888;SDS011;59762;49.998;14.858;2023-04-07T11:06:09;5.75;;;3.08;;
71888;SDS011;59762;49.998;14.858;2023-04-07T11:08:37;7.97;;;4.40;;
71888;SDS011;59762;49.998;14.858;2023-04-07T11:11:06;12.43;;;3.80;;
71888;SDS011;59762;49.998;14.858;2023-04-07T11:13:46;15.20;;;3.85;;
71888;SDS011;59762;49.998;14.858;2023-04-07T11:16:13;7.88;;;3.17;;
71888;SDS011;59762;49.998;14.858;2023-04-07T11:18:40;6.72;;;2.80;;
71888;SDS011;59762;49.998;14.858;2023-04-07T11:21:08;6.85;;;3.72;;
71888;SDS011;59762;49.998;14.858;2023-04-07T11:23:38;7.88;;;3.05;;
71888;SDS011;59762;49.998;14.858;2023-04-07T11:26:08;5.20;;;3.63;;
71888;SDS011;59762;49.998;14.858;2023-04-07T11:28:44;5.38;;;3.55;;
71888;SDS011;59762;49.998;14.858;2023-04-07T11:31:28;7.40;;;4.03;;
71888;SDS011;59762;49.998;14.858;2023-04-07T11:33:56;9.13;;;3.10;;
71888;SDS011;59762;49.998;14.858;2023-04-07T11:36:27;6.35;;;3.40;;
71888;SDS011;59762;49.998;14.858;2023-04-07T11:38:57;5.05;;;2.95;;
71888;SDS011;59762;49.998;14.858;2023-04-07T11:41:25;10.10;;;3.38;;
71888;SDS011;59762;49.998;14.858;2023-04-07T11:44:08;6.18;;;2.92;;
71888;SDS011;59762;49.998;14.858;2023-04-07T11:46:35;5.22;;;3.15;;
71888;SDS011;59762;49.998;14.858;2023-04-07T11:49:12;5.50;;;3.35;;
71888;SDS011;59762;49.998;14.858;2023-04-07T11:51:40;6.85;;;3.17;;
71888;SDS011;59762;49.998;14.858;2023-04-07T11:54:07;6.13;;;3.25;;
71888;SDS011;59762;49.998;14.858;2023-04-07T11:56:44;6.05;;;2.75;;
71888;SDS011;59762;49.998;14.858;2023-04-07T11:59:20;4.55;;;3.13;;
71888;SDS011;59762;49.998;14.858;2023-04-07T12:01:48;5.57;;;3.22;;
71888;SDS011;59762;49.998;14.858;2023-04-07T12:04:17;9.13;;;3.90;;
71888;SDS011;59762;49.998;14.858;2023-04-07T12:06:44;6.10;;;3.45;;
71888;SDS011;59762;49.998;14.858;2023-04-07T12:09:44;6.70;;;3.55;;
71888;SDS011;59762;49.998;14.858;2023-04-07T12:12:05;5.78;;;2.25;;
71888;SDS011;59762;49.998;14.858;2023-04-07T12:14:32;5.72;;;3.58;;
71888;SDS011;59762;49.998;14.858;2023-04-07T12:16:59;5.55;;;2.83;;
71888;SDS011;59762;49.998;14.858;2023-04-07T12:19:28;4.97;;;2.92;;
71888;SDS011;59762;49.998;14.858;2023-04-07T12:21:55;8.02;;;3.50;;
71888;SDS011;59762;49.998;14.858;2023-04-07T12:24:21;7.15;;;2.97;;
71888;SDS011;59762;49.998;14.858;2023-04-07T12:26:48;5.72;;;2.95;;
71888;SDS011;59762;49.998;14.858;2023-04-07T12:29:14;6.72;;;3.47;;
71888;SDS011;59762;49.998;14.858;2023-04-07T12:31:41;7.90;;;3.63;;
71888;SDS011;59762;49.998;14.858;2023-04-07T12:34:08;10.80;;;3.63;;
71888;SDS011;59762;49.998;14.858;2023-04-07T12:36:34;4.55;;;2.92;;
71888;SDS011;59762;49.998;14.858;2023-04-07T12:38:59;3.58;;;2.92;;
71888;SDS011;59762;49.998;14.858;2023-04-07T12:41:25;7.82;;;3.08;;
71888;SDS011;59762;49.998;14.858;2023-04-07T12:43:50;5.88;;;3.13;;
71888;SDS011;59762;49.998;14.858;2023-04-07T12:46:17;5.15;;;3.38;;
71888;SDS011;59762;49.998;14.858;2023-04-07T12:48:44;8.43;;;3.55;;
71888;SDS011;59762;49.998;14.858;2023-04-07T12:51:10;7.18;;;2.97;;
71888;SDS011;59762;49.998;14.858;2023-04-07T12:53:36;5.53;;;3.22;;
71888;SDS011;59762;49.998;14.858;2023-04-07T12:56:01;5.75;;;3.22;;
71888;SDS011;59762;49.998;14.858;2023-04-07T12:58:27;7.18;;;3.47;;
71888;SDS011;59762;49.998;14.858;2023-04-07T13:00:53;6.15;;;3.25;;
71888;SDS011;59762;49.998;14.858;2023-04-07T13:03:19;5.28;;;2.72;;
71888;SDS011;59762;49.998;14.858;2023-04-07T13:05:45;3.80;;;2.35;;
71888;SDS011;59762;49.998;14.858;2023-04-07T13:08:10;3.08;;;2.13;;
71888;SDS011;59762;49.998;14.858;2023-04-07T13:10:36;7.25;;;2.88;;
71888;SDS011;59762;49.998;14.858;2023-04-07T13:13:01;5.10;;;3.30;;
71888;SDS011;59762;49.998;14.858;2023-04-07T13:15:27;5.63;;;2.88;;
71888;SDS011;59762;49.998;14.858;2023-04-07T13:17:53;5.43;;;2.85;;
71888;SDS011;59762;49.998;14.858;2023-04-07T13:20:19;3.25;;;2.22;;
71888;SDS011;59762;49.998;14.858;2023-04-07T13:22:45;8.38;;;3.20;;
71888;SDS011;59762;49.998;14.858;2023-04-07T13:25:11;5.53;;;2.47;;
71888;SDS011;59762;49.998;14.858;2023-04-07T13:27:37;6.13;;;2.80;;
71888;SDS011;59762;49.998;14.858;2023-04-07T13:30:03;8.35;;;3.22;;
71888;SDS011;59762;49.998;14.858;2023-04-07T13:32:29;6.85;;;2.97;;
71888;SDS011;59762;49.998;14.858;2023-04-07T13:34:55;3.92;;;2.50;;
71888;SDS011;59762;49.998;14.858;2023-04-07T13:37:21;7.38;;;2.95;;
71888;SDS011;59762;49.998;14.858;2023-04-07T13:39:47;4.78;;;2.83;;
71888;SDS011;59762;49.998;14.858;2023-04-07T13:42:12;4.70;;;2.55;;
71888;SDS011;59762;49.998;14.858;2023-04-07T13:44:41;4.40;;;2.65;;
71888;SDS011;59762;49.998;14.858;2023-04-07T13:47:09;5.28;;;2.50;;
71888;SDS011;59762;49.998;14.858;2023-04-07T13:49:35;5.63;;;2.47;;
71888;SDS011;59762;49.998;14.858;2023-04-07T13:52:01;8.85;;;3.08;;
71888;SDS011;59762;49.998;14.858;2023-04-07T13:54:26;1.92;;;1.67;;
71888;SDS011;59762;49.998;14.858;2023-04-07T13:56:52;2.95;;;1.90;;
71888;SDS011;59762;49.998;14.858;2023-04-07T13:59:18;5.38;;;2.80;;
71888;SDS011;59762;49.998;14.858;2023-04-07T14:01:43;5.82;;;2.47;;
71888;SDS011;59762;49.998;14.858;2023-04-07T14:04:09;4.03;;;2.65;;
71888;SDS011;59762;49.998;14.858;2023-04-07T14:06:35;4.28;;;2.50;;
71888;SDS011;59762;49.998;14.858;2023-04-07T14:09:01;3.45;;;2.03;;
71888;SDS011;59762;49.998;14.858;2023-04-07T14:11:27;4.10;;;2.55;;
71888;SDS011;59762;49.998;14.858;2023-04-07T14:13:53;2.95;;;2.25;;
71888;SDS011;59762;49.998;14.858;2023-04-07T14:16:21;8.18;;;2.38;;
71888;SDS011;59762;49.998;14.858;2023-04-07T14:18:47;3.53;;;2.20;;
71888;SDS011;59762;49.998;14.858;2023-04-07T14:21:13;2.70;;;2.30;;
71888;SDS011;59762;49.998;14.858;2023-04-07T14:23:40;4.45;;;2.67;;
71888;SDS011;59762;49.998;14.858;2023-04-07T14:26:12;4.38;;;1.98;;
71888;SDS011;59762;49.998;14.858;2023-04-07T14:28:38;8.85;;;2.03;;
71888;SDS011;59762;49.998;14.858;2023-04-07T14:31:04;4.07;;;2.03;;
71888;SDS011;59762;49.998;14.858;2023-04-07T14:33:30;4.70;;;2.42;;
71888;SDS011;59762;49.998;14.858;2023-04-07T14:35:55;4.93;;;2.63;;
71888;SDS011;59762;49.998;14.858;2023-04-07T14:38:21;6.45;;;2.95;;
71888;SDS011;59762;49.998;14.858;2023-04-07T14:40:50;5.93;;;3.75;;
71888;SDS011;59762;49.998;14.858;2023-04-07T14:43:17;4.10;;;2.78;;
71888;SDS011;59762;49.998;14.858;2023-04-07T14:45:42;4.22;;;2.60;;
71888;SDS011;59762;49.998;14.858;2023-04-07T14:48:08;4.63;;;2.50;;
71888;SDS011;59762;49.998;14.858;2023-04-07T14:50:34;5.65;;;2.40;;
71888;SDS011;59762;49.998;14.858;2023-04-07T14:53:00;3.63;;;2.58;;
71888;SDS011;59762;49.998;14.858;2023-04-07T14:55:25;5.35;;;2.42;;
71888;SDS011;59762;49.998;14.858;2023-04-07T14:57:51;7.38;;;2.80;;
71888;SDS011;59762;49.998;14.858;2023-04-07T15:00:17;6.15;;;2.40;;
71888;SDS011;59762;49.998;14.858;2023-04-07T15:02:43;5.68;;;2.65;;
71888;SDS011;59762;49.998;14.858;2023-04-07T15:05:08;3.38;;;2.22;;